sensor_id;sensor_type;location;lat;lon;timestamp;P1;durP1;ratioP1;P2;durP2;ratioP2
67092;SDS011;54011;50.772;7.730;2023-03-19T00:02:03;12.95;;;5.93;;
67092;SDS011;54011;50.772;7.730;2023-03-19T00:04:29;12.32;;;5.43;;
67092;SDS011;54011;50.772;7.730;2023-03-19T00:06:54;11.77;;;5.32;;
67092;SDS011;54011;50.772;7.730;2023-03-19T00:09:20;12.13;;;5.72;;
67092;SDS011;54011;50.772;7.730;2023-03-19T00:11:46;12.43;;;5.63;;
67092;SDS011;54011;50.772;7.730;2023-03-19T00:14:12;13.07;;;5.53;;
67092;SDS011;54011;50.772;7.730;2023-03-19T00:16:39;12.85;;;5.72;;
67092;SDS011;54011;50.772;7.730;2023-03-19T00:19:05;14.57;;;6.07;;
67092;SDS011;54011;50.772;7.730;2023-03-19T00:21:30;11.40;;;5.35;;
67092;SDS011;54011;50.772;7.730;2023-03-19T00:23:56;10.88;;;5.40;;
67092;SDS011;54011;50.772;7.730;2023-03-19T00:26:29;12.13;;;6.03;;
67092;SDS011;54011;50.772;7.730;2023-03-19T00:28:56;12.00;;;5.53;;
67092;SDS011;54011;50.772;7.730;2023-03-19T00:31:23;11.38;;;5.50;;
67092;SDS011;54011;50.772;7.730;2023-03-19T00:33:50;10.43;;;5.22;;
67092;SDS011;54011;50.772;7.730;2023-03-19T00:36:16;10.18;;;5.07;;
67092;SDS011;54011;50.772;7.730;2023-03-19T00:38:42;10.30;;;5.45;;
67092;SDS011;54011;50.772;7.730;2023-03-19T00:41:09;12.82;;;5.72;;
67092;SDS011;54011;50.772;7.730;2023-03-19T00:43:35;10.65;;;5.35;;
67092;SDS011;54011;50.772;7.730;2023-03-19T00:46:01;10.55;;;5.20;;
67092;SDS011;54011;50.772;7.730;2023-03-19T00:48:28;13.73;;;5.53;;
67092;SDS011;54011;50.772;7.730;2023-03-19T00:50:53;11.20;;;5.38;;
67092;SDS011;54011;50.772;7.730;2023-03-19T00:53:19;12.57;;;5.57;;
67092;SDS011;54011;50.772;7.730;2023-03-19T00:55:45;11.20;;;5.20;;
67092;SDS011;54011;50.772;7.730;2023-03-19T00:58:11;10.23;;;5.20;;
67092;SDS011;54011;50.772;7.730;2023-03-19T01:00:38;12.63;;;6.03;;
67092;SDS011;54011;50.772;7.730;2023-03-19T01:03:04;12.18;;;5.45;;
67092;SDS011;54011;50.772;7.730;2023-03-19T01:05:31;11.70;;;6.28;;
67092;SDS011;54011;50.772;7.730;2023-03-19T01:07:59;14.38;;;5.60;;
67092;SDS011;54011;50.772;7.730;2023-03-19T01:10:24;8.73;;;5.30;;
67092;SDS011;54011;50.772;7.730;2023-03-19T01:12:50;11.60;;;5.43;;
67092;SDS011;54011;50.772;7.730;2023-03-19T01:15:16;12.77;;;5.50;;
67092;SDS011;54011;50.772;7.730;2023-03-19T01:17:42;12.52;;;5.50;;
67092;SDS011;54011;50.772;7.730;2023-03-19T01:20:08;12.25;;;5.20;;
67092;SDS011;54011;50.772;7.730;2023-03-19T01:22:38;10.75;;;5.82;;
67092;SDS011;54011;50.772;7.730;2023-03-19T01:25:06;14.30;;;5.88;;
67092;SDS011;54011;50.772;7.730;2023-03-19T01:27:33;13.70;;;5.47;;
67092;SDS011;54011;50.772;7.730;2023-03-19T01:30:06;10.15;;;4.70;;
67092;SDS011;54011;50.772;7.730;2023-03-19T01:33:13;15.05;;;6.20;;
67092;SDS011;54011;50.772;7.730;2023-03-19T01:35:59;14.20;;;6.10;;
67092;SDS011;54011;50.772;7.730;2023-03-19T01:38:34;11.95;;;5.85;;
67092;SDS011;54011;50.772;7.730;2023-03-19T01:41:03;12.15;;;5.70;;
67092;SDS011;54011;50.772;7.730;2023-03-19T01:43:29;14.18;;;6.00;;
67092;SDS011;54011;50.772;7.730;2023-03-19T01:46:18;14.50;;;6.28;;
67092;SDS011;54011;50.772;7.730;2023-03-19T01:49:14;11.93;;;6.00;;
67092;SDS011;54011;50.772;7.730;2023-03-19T01:51:47;13.68;;;5.70;;
67092;SDS011;54011;50.772;7.730;2023-03-19T01:54:27;12.70;;;6.60;;
67092;SDS011;54011;50.772;7.730;2023-03-19T01:57:09;11.23;;;5.80;;
67092;SDS011;54011;50.772;7.730;2023-03-19T01:59:59;14.52;;;5.68;;
67092;SDS011;54011;50.772;7.730;2023-03-19T02:02:43;12.02;;;5.97;;
67092;SDS011;54011;50.772;7.730;2023-03-19T02:05:32;10.38;;;5.47;;
67092;SDS011;54011;50.772;7.730;2023-03-19T02:08:04;12.98;;;5.57;;
67092;SDS011;54011;50.772;7.730;2023-03-19T02:10:32;13.88;;;6.13;;
67092;SDS011;54011;50.772;7.730;2023-03-19T02:12:58;14.13;;;6.32;;
67092;SDS011;54011;50.772;7.730;2023-03-19T02:15:24;14.85;;;6.80;;
67092;SDS011;54011;50.772;7.730;2023-03-19T02:17:49;16.85;;;6.68;;
67092;SDS011;54011;50.772;7.730;2023-03-19T02:20:17;15.15;;;6.80;;
67092;SDS011;54011;50.772;7.730;2023-03-19T02:28:16;12.38;;;5.82;;
67092;SDS011;54011;50.772;7.730;2023-03-19T02:30:50;13.60;;;6.35;;
67092;SDS011;54011;50.772;7.730;2023-03-19T02:33:17;12.68;;;5.65;;
67092;SDS011;54011;50.772;7.730;2023-03-19T02:35:44;9.73;;;4.28;;
67092;SDS011;54011;50.772;7.730;2023-03-19T02:38:13;8.82;;;4.90;;
67092;SDS011;54011;50.772;7.730;2023-03-19T02:40:44;12.93;;;4.82;;
67092;SDS011;54011;50.772;7.730;2023-03-19T02:43:14;12.90;;;5.75;;
67092;SDS011;54011;50.772;7.730;2023-03-19T02:45:40;13.38;;;6.60;;
67092;SDS011;54011;50.772;7.730;2023-03-19T02:48:06;15.63;;;6.32;;
67092;SDS011;54011;50.772;7.730;2023-03-19T02:50:31;8.48;;;3.70;;
67092;SDS011;54011;50.772;7.730;2023-03-19T02:52:57;13.13;;;4.00;;
67092;SDS011;54011;50.772;7.730;2023-03-19T02:55:23;9.60;;;4.30;;
67092;SDS011;54011;50.772;7.730;2023-03-19T02:57:48;8.45;;;4.22;;
67092;SDS011;54011;50.772;7.730;2023-03-19T03:00:14;10.63;;;4.70;;
67092;SDS011;54011;50.772;7.730;2023-03-19T03:02:43;10.52;;;4.70;;
67092;SDS011;54011;50.772;7.730;2023-03-19T03:05:09;11.25;;;4.93;;
67092;SDS011;54011;50.772;7.730;2023-03-19T03:07:35;12.38;;;5.63;;
67092;SDS011;54011;50.772;7.730;2023-03-19T03:10:01;10.73;;;4.70;;
67092;SDS011;54011;50.772;7.730;2023-03-19T03:12:27;9.93;;;5.57;;
67092;SDS011;54011;50.772;7.730;2023-03-19T03:14:53;12.00;;;5.55;;
67092;SDS011;54011;50.772;7.730;2023-03-19T03:17:20;9.27;;;5.07;;
67092;SDS011;54011;50.772;7.730;2023-03-19T03:19:45;11.98;;;5.35;;
67092;SDS011;54011;50.772;7.730;2023-03-19T03:22:15;13.02;;;6.03;;
67092;SDS011;54011;50.772;7.730;2023-03-19T03:24:50;14.57;;;5.95;;
67092;SDS011;54011;50.772;7.730;2023-03-19T03:27:21;14.53;;;5.50;;
67092;SDS011;54011;50.772;7.730;2023-03-19T03:29:47;11.20;;;5.65;;
67092;SDS011;54011;50.772;7.730;2023-03-19T03:32:17;14.63;;;5.88;;
67092;SDS011;54011;50.772;7.730;2023-03-19T03:34:42;11.02;;;5.70;;
67092;SDS011;54011;50.772;7.730;2023-03-19T03:37:10;11.65;;;5.28;;
67092;SDS011;54011;50.772;7.730;2023-03-19T03:39:36;11.25;;;5.30;;
67092;SDS011;54011;50.772;7.730;2023-03-19T03:42:02;10.00;;;5.32;;
67092;SDS011;54011;50.772;7.730;2023-03-19T03:44:30;11.65;;;5.70;;
67092;SDS011;54011;50.772;7.730;2023-03-19T03:46:55;14.15;;;5.88;;
67092;SDS011;54011;50.772;7.730;2023-03-19T03:49:21;11.13;;;5.65;;
67092;SDS011;54011;50.772;7.730;2023-03-19T03:51:47;11.65;;;6.00;;
67092;SDS011;54011;50.772;7.730;2023-03-19T03:54:13;11.15;;;5.90;;
67092;SDS011;54011;50.772;7.730;2023-03-19T03:56:39;12.07;;;4.95;;
67092;SDS011;54011;50.772;7.730;2023-03-19T03:59:05;10.93;;;5.10;;
67092;SDS011;54011;50.772;7.730;2023-03-19T04:01:31;9.45;;;4.72;;
67092;SDS011;54011;50.772;7.730;2023-03-19T04:03:58;10.30;;;5.00;;
67092;SDS011;54011;50.772;7.730;2023-03-19T04:06:23;11.82;;;5.15;;
67092;SDS011;54011;50.772;7.730;2023-03-19T04:09:08;9.77;;;5.40;;
67092;SDS011;54011;50.772;7.730;2023-03-19T04:11:34;10.70;;;5.18;;
67092;SDS011;54011;50.772;7.730;2023-03-19T04:14:00;9.25;;;4.95;;
67092;SDS011;54011;50.772;7.730;2023-03-19T04:16:30;15.35;;;4.75;;
67092;SDS011;54011;50.772;7.730;2023-03-19T04:18:55;8.95;;;4.80;;
67092;SDS011;54011;50.772;7.730;2023-03-19T04:21:20;9.57;;;5.20;;
67092;SDS011;54011;50.772;7.730;2023-03-19T04:23:46;12.20;;;5.20;;
67092;SDS011;54011;50.772;7.730;2023-03-19T04:26:12;10.63;;;5.20;;
67092;SDS011;54011;50.772;7.730;2023-03-19T04:28:38;11.70;;;5.15;;
67092;SDS011;54011;50.772;7.730;2023-03-19T04:31:04;14.73;;;5.15;;
67092;SDS011;54011;50.772;7.730;2023-03-19T04:33:33;11.43;;;5.47;;
67092;SDS011;54011;50.772;7.730;2023-03-19T04:36:02;10.27;;;5.72;;
67092;SDS011;54011;50.772;7.730;2023-03-19T04:38:28;10.30;;;5.55;;
67092;SDS011;54011;50.772;7.730;2023-03-19T04:40:54;10.73;;;5.57;;
67092;SDS011;54011;50.772;7.730;2023-03-19T04:43:21;8.70;;;5.03;;
67092;SDS011;54011;50.772;7.730;2023-03-19T04:45:48;10.05;;;4.10;;
67092;SDS011;54011;50.772;7.730;2023-03-19T04:48:15;11.95;;;4.40;;
67092;SDS011;54011;50.772;7.730;2023-03-19T04:50:42;8.65;;;4.10;;
67092;SDS011;54011;50.772;7.730;2023-03-19T04:53:10;10.40;;;3.67;;
67092;SDS011;54011;50.772;7.730;2023-03-19T04:55:37;7.03;;;3.63;;
67092;SDS011;54011;50.772;7.730;2023-03-19T04:58:06;9.45;;;3.90;;
67092;SDS011;54011;50.772;7.730;2023-03-19T05:00:34;7.70;;;2.95;;
67092;SDS011;54011;50.772;7.730;2023-03-19T05:03:00;5.68;;;2.70;;
67092;SDS011;54011;50.772;7.730;2023-03-19T05:05:29;5.35;;;2.53;;
67092;SDS011;54011;50.772;7.730;2023-03-19T05:07:55;7.72;;;2.53;;
67092;SDS011;54011;50.772;7.730;2023-03-19T05:10:21;5.28;;;2.45;;
67092;SDS011;54011;50.772;7.730;2023-03-19T05:12:47;9.27;;;2.85;;
67092;SDS011;54011;50.772;7.730;2023-03-19T05:15:13;6.07;;;2.70;;
67092;SDS011;54011;50.772;7.730;2023-03-19T05:17:49;10.38;;;2.60;;
67092;SDS011;54011;50.772;7.730;2023-03-19T05:20:26;7.32;;;2.53;;
67092;SDS011;54011;50.772;7.730;2023-03-19T05:23:00;8.75;;;3.33;;
67092;SDS011;54011;50.772;7.730;2023-03-19T05:25:37;8.75;;;3.55;;
67092;SDS011;54011;50.772;7.730;2023-03-19T05:28:06;8.15;;;3.72;;
67092;SDS011;54011;50.772;7.730;2023-03-19T05:30:32;9.77;;;3.72;;
67092;SDS011;54011;50.772;7.730;2023-03-19T05:33:29;6.20;;;3.45;;
67092;SDS011;54011;50.772;7.730;2023-03-19T05:35:55;7.65;;;3.38;;
67092;SDS011;54011;50.772;7.730;2023-03-19T05:38:29;6.78;;;2.88;;
67092;SDS011;54011;50.772;7.730;2023-03-19T05:41:03;6.72;;;2.80;;
67092;SDS011;54011;50.772;7.730;2023-03-19T05:43:38;6.20;;;2.75;;
67092;SDS011;54011;50.772;7.730;2023-03-19T05:46:07;7.25;;;2.70;;
67092;SDS011;54011;50.772;7.730;2023-03-19T05:48:34;9.27;;;2.85;;
67092;SDS011;54011;50.772;7.730;2023-03-19T05:51:06;8.63;;;3.05;;
67092;SDS011;54011;50.772;7.730;2023-03-19T05:53:37;5.97;;;2.50;;
67092;SDS011;54011;50.772;7.730;2023-03-19T05:56:21;7.35;;;3.00;;
67092;SDS011;54011;50.772;7.730;2023-03-19T05:59:00;7.88;;;2.67;;
67092;SDS011;54011;50.772;7.730;2023-03-19T06:01:33;7.03;;;2.58;;
67092;SDS011;54011;50.772;7.730;2023-03-19T06:03:59;6.80;;;2.22;;
67092;SDS011;54011;50.772;7.730;2023-03-19T06:06:25;7.10;;;2.10;;
67092;SDS011;54011;50.772;7.730;2023-03-19T06:08:52;5.57;;;2.53;;
67092;SDS011;54011;50.772;7.730;2023-03-19T06:11:24;9.13;;;2.60;;
67092;SDS011;54011;50.772;7.730;2023-03-19T06:14:05;7.78;;;3.08;;
67092;SDS011;54011;50.772;7.730;2023-03-19T06:16:36;6.40;;;2.40;;
67092;SDS011;54011;50.772;7.730;2023-03-19T06:19:02;6.28;;;2.42;;
67092;SDS011;54011;50.772;7.730;2023-03-19T06:21:28;7.15;;;2.67;;
67092;SDS011;54011;50.772;7.730;2023-03-19T06:23:56;5.25;;;2.00;;
67092;SDS011;54011;50.772;7.730;2023-03-19T06:26:28;4.82;;;2.00;;
67092;SDS011;54011;50.772;7.730;2023-03-19T06:28:57;6.75;;;2.10;;
67092;SDS011;54011;50.772;7.730;2023-03-19T06:31:23;6.10;;;1.92;;
67092;SDS011;54011;50.772;7.730;2023-03-19T06:33:52;5.03;;;2.00;;
67092;SDS011;54011;50.772;7.730;2023-03-19T06:36:19;6.05;;;2.20;;
67092;SDS011;54011;50.772;7.730;2023-03-19T06:38:46;9.38;;;2.33;;
67092;SDS011;54011;50.772;7.730;2023-03-19T06:41:11;3.95;;;2.00;;
67092;SDS011;54011;50.772;7.730;2023-03-19T06:43:37;6.93;;;2.20;;
67092;SDS011;54011;50.772;7.730;2023-03-19T06:46:06;6.10;;;2.10;;
67092;SDS011;54011;50.772;7.730;2023-03-19T06:48:33;5.72;;;2.20;;
67092;SDS011;54011;50.772;7.730;2023-03-19T06:50:58;5.97;;;2.28;;
67092;SDS011;54011;50.772;7.730;2023-03-19T06:53:25;7.55;;;2.67;;
67092;SDS011;54011;50.772;7.730;2023-03-19T06:55:52;5.50;;;2.30;;
67092;SDS011;54011;50.772;7.730;2023-03-19T06:58:17;7.47;;;2.33;;
67092;SDS011;54011;50.772;7.730;2023-03-19T07:00:43;5.25;;;2.03;;
67092;SDS011;54011;50.772;7.730;2023-03-19T07:03:09;6.43;;;2.45;;
67092;SDS011;54011;50.772;7.730;2023-03-19T07:05:35;6.15;;;2.13;;
67092;SDS011;54011;50.772;7.730;2023-03-19T07:08:02;5.68;;;2.40;;
67092;SDS011;54011;50.772;7.730;2023-03-19T07:10:27;6.43;;;2.28;;
67092;SDS011;54011;50.772;7.730;2023-03-19T07:12:54;7.32;;;2.25;;
67092;SDS011;54011;50.772;7.730;2023-03-19T07:15:20;5.28;;;2.10;;
67092;SDS011;54011;50.772;7.730;2023-03-19T07:17:46;7.78;;;2.40;;
67092;SDS011;54011;50.772;7.730;2023-03-19T07:20:12;6.00;;;2.10;;
67092;SDS011;54011;50.772;7.730;2023-03-19T07:22:39;6.70;;;1.85;;
67092;SDS011;54011;50.772;7.730;2023-03-19T07:25:04;6.03;;;2.08;;
67092;SDS011;54011;50.772;7.730;2023-03-19T07:27:30;7.30;;;2.00;;
67092;SDS011;54011;50.772;7.730;2023-03-19T07:29:56;8.13;;;2.38;;
67092;SDS011;54011;50.772;7.730;2023-03-19T07:32:21;4.78;;;1.80;;
67092;SDS011;54011;50.772;7.730;2023-03-19T07:34:47;7.22;;;2.40;;
67092;SDS011;54011;50.772;7.730;2023-03-19T07:37:13;7.22;;;2.30;;
67092;SDS011;54011;50.772;7.730;2023-03-19T07:39:38;6.05;;;2.05;;
67092;SDS011;54011;50.772;7.730;2023-03-19T07:42:04;7.00;;;2.20;;
67092;SDS011;54011;50.772;7.730;2023-03-19T07:44:30;6.95;;;2.50;;
67092;SDS011;54011;50.772;7.730;2023-03-19T07:46:55;5.03;;;2.00;;
67092;SDS011;54011;50.772;7.730;2023-03-19T07:49:21;4.47;;;1.75;;
67092;SDS011;54011;50.772;7.730;2023-03-19T07:51:47;4.65;;;1.90;;
67092;SDS011;54011;50.772;7.730;2023-03-19T07:54:13;5.97;;;2.72;;
67092;SDS011;54011;50.772;7.730;2023-03-19T07:56:39;5.80;;;3.00;;
67092;SDS011;54011;50.772;7.730;2023-03-19T07:59:05;5.75;;;2.58;;
67092;SDS011;54011;50.772;7.730;2023-03-19T08:01:31;8.13;;;3.47;;
67092;SDS011;54011;50.772;7.730;2023-03-19T08:03:57;5.90;;;2.70;;
67092;SDS011;54011;50.772;7.730;2023-03-19T08:06:36;6.82;;;2.50;;
67092;SDS011;54011;50.772;7.730;2023-03-19T08:09:03;6.07;;;2.67;;
67092;SDS011;54011;50.772;7.730;2023-03-19T08:11:29;5.88;;;2.40;;
67092;SDS011;54011;50.772;7.730;2023-03-19T08:13:55;7.15;;;2.20;;
67092;SDS011;54011;50.772;7.730;2023-03-19T08:16:21;5.43;;;2.15;;
67092;SDS011;54011;50.772;7.730;2023-03-19T08:18:50;4.65;;;2.10;;
67092;SDS011;54011;50.772;7.730;2023-03-19T08:21:16;5.18;;;2.10;;
67092;SDS011;54011;50.772;7.730;2023-03-19T08:23:42;4.60;;;1.95;;
67092;SDS011;54011;50.772;7.730;2023-03-19T08:26:07;6.72;;;1.92;;
67092;SDS011;54011;50.772;7.730;2023-03-19T08:28:33;4.45;;;1.90;;
67092;SDS011;54011;50.772;7.730;2023-03-19T08:31:10;6.50;;;2.00;;
67092;SDS011;54011;50.772;7.730;2023-03-19T08:33:37;5.30;;;2.03;;
67092;SDS011;54011;50.772;7.730;2023-03-19T08:36:07;5.18;;;1.98;;
67092;SDS011;54011;50.772;7.730;2023-03-19T08:38:35;5.00;;;2.00;;
67092;SDS011;54011;50.772;7.730;2023-03-19T08:41:01;5.90;;;2.22;;
67092;SDS011;54011;50.772;7.730;2023-03-19T08:43:32;8.65;;;2.03;;
67092;SDS011;54011;50.772;7.730;2023-03-19T08:45:58;4.30;;;1.80;;
67092;SDS011;54011;50.772;7.730;2023-03-19T08:48:25;4.18;;;1.80;;
67092;SDS011;54011;50.772;7.730;2023-03-19T08:50:52;7.28;;;1.98;;
67092;SDS011;54011;50.772;7.730;2023-03-19T08:53:26;3.53;;;1.80;;
67092;SDS011;54011;50.772;7.730;2023-03-19T08:55:55;5.80;;;2.00;;
67092;SDS011;54011;50.772;7.730;2023-03-19T08:58:22;3.67;;;1.90;;
67092;SDS011;54011;50.772;7.730;2023-03-19T09:00:49;6.85;;;2.25;;
67092;SDS011;54011;50.772;7.730;2023-03-19T09:03:15;4.55;;;1.90;;
67092;SDS011;54011;50.772;7.730;2023-03-19T09:05:41;4.43;;;1.90;;
67092;SDS011;54011;50.772;7.730;2023-03-19T09:08:09;5.95;;;1.73;;
67092;SDS011;54011;50.772;7.730;2023-03-19T09:10:39;4.63;;;1.98;;
67092;SDS011;54011;50.772;7.730;2023-03-19T09:13:06;5.47;;;2.00;;
67092;SDS011;54011;50.772;7.730;2023-03-19T09:15:32;5.75;;;2.00;;
67092;SDS011;54011;50.772;7.730;2023-03-19T09:17:57;6.13;;;2.08;;
67092;SDS011;54011;50.772;7.730;2023-03-19T09:20:26;4.25;;;1.90;;
67092;SDS011;54011;50.772;7.730;2023-03-19T09:23:01;4.82;;;1.85;;
67092;SDS011;54011;50.772;7.730;2023-03-19T09:25:27;5.70;;;1.80;;
67092;SDS011;54011;50.772;7.730;2023-03-19T09:27:55;4.45;;;1.90;;
67092;SDS011;54011;50.772;7.730;2023-03-19T09:30:21;6.75;;;2.20;;
67092;SDS011;54011;50.772;7.730;2023-03-19T09:33:04;5.05;;;1.90;;
67092;SDS011;54011;50.772;7.730;2023-03-19T09:35:30;4.35;;;2.00;;
67092;SDS011;54011;50.772;7.730;2023-03-19T09:37:58;4.00;;;1.67;;
67092;SDS011;54011;50.772;7.730;2023-03-19T09:40:28;4.13;;;1.83;;
67092;SDS011;54011;50.772;7.730;2023-03-19T09:45:31;4.93;;;1.90;;
67092;SDS011;54011;50.772;7.730;2023-03-19T09:48:02;6.45;;;2.08;;
67092;SDS011;54011;50.772;7.730;2023-03-19T09:50:36;5.70;;;1.98;;
67092;SDS011;54011;50.772;7.730;2023-03-19T09:58:13;5.88;;;2.72;;
67092;SDS011;54011;50.772;7.730;2023-03-19T10:00:51;4.85;;;2.50;;
67092;SDS011;54011;50.772;7.730;2023-03-19T10:03:27;7.07;;;3.20;;
67092;SDS011;54011;50.772;7.730;2023-03-19T10:08:45;5.32;;;2.70;;
67092;SDS011;54011;50.772;7.730;2023-03-19T10:17:13;7.10;;;3.05;;
67092;SDS011;54011;50.772;7.730;2023-03-19T10:19:53;7.75;;;4.60;;
67092;SDS011;54011;50.772;7.730;2023-03-19T10:22:31;12.18;;;7.28;;
67092;SDS011;54011;50.772;7.730;2023-03-19T10:25:02;7.47;;;3.80;;
67092;SDS011;54011;50.772;7.730;2023-03-19T10:27:29;4.78;;;2.30;;
67092;SDS011;54011;50.772;7.730;2023-03-19T10:29:56;5.18;;;2.50;;
67092;SDS011;54011;50.772;7.730;2023-03-19T10:32:27;4.43;;;2.25;;
67092;SDS011;54011;50.772;7.730;2023-03-19T10:35:15;4.60;;;2.30;;
67092;SDS011;54011;50.772;7.730;2023-03-19T10:37:44;4.05;;;2.20;;
67092;SDS011;54011;50.772;7.730;2023-03-19T10:40:16;4.43;;;2.03;;
67092;SDS011;54011;50.772;7.730;2023-03-19T10:42:51;4.60;;;2.10;;
67092;SDS011;54011;50.772;7.730;2023-03-19T10:45:35;4.88;;;1.85;;
67092;SDS011;54011;50.772;7.730;2023-03-19T10:48:02;6.85;;;1.98;;
67092;SDS011;54011;50.772;7.730;2023-03-19T10:55:52;3.38;;;1.63;;
67092;SDS011;54011;50.772;7.730;2023-03-19T10:58:22;5.70;;;2.00;;
67092;SDS011;54011;50.772;7.730;2023-03-19T11:00:56;3.55;;;1.60;;
67092;SDS011;54011;50.772;7.730;2023-03-19T11:03:33;4.85;;;1.52;;
67092;SDS011;54011;50.772;7.730;2023-03-19T11:08:35;4.05;;;1.45;;
67092;SDS011;54011;50.772;7.730;2023-03-19T11:11:01;2.25;;;0.90;;
67092;SDS011;54011;50.772;7.730;2023-03-19T11:13:27;3.85;;;1.33;;
67092;SDS011;54011;50.772;7.730;2023-03-19T11:15:53;3.72;;;1.30;;
67092;SDS011;54011;50.772;7.730;2023-03-19T11:18:27;2.15;;;0.85;;
67092;SDS011;54011;50.772;7.730;2023-03-19T11:20:56;3.72;;;1.30;;
67092;SDS011;54011;50.772;7.730;2023-03-19T11:23:30;3.72;;;1.30;;
67092;SDS011;54011;50.772;7.730;2023-03-19T11:26:03;2.38;;;1.05;;
67092;SDS011;54011;50.772;7.730;2023-03-19T11:28:29;3.22;;;1.15;;
67092;SDS011;54011;50.772;7.730;2023-03-19T11:36:42;2.40;;;1.10;;
67092;SDS011;54011;50.772;7.730;2023-03-19T11:45:23;3.35;;;1.00;;
67092;SDS011;54011;50.772;7.730;2023-03-19T11:48:11;1.95;;;0.82;;
67092;SDS011;54011;50.772;7.730;2023-03-19T12:01:08;3.25;;;0.90;;
67092;SDS011;54011;50.772;7.730;2023-03-19T12:06:39;1.95;;;0.77;;
67092;SDS011;54011;50.772;7.730;2023-03-19T12:11:52;2.88;;;0.85;;
67092;SDS011;54011;50.772;7.730;2023-03-19T12:17:55;1.48;;;0.60;;
67092;SDS011;54011;50.772;7.730;2023-03-19T12:20:44;2.38;;;0.70;;
67092;SDS011;54011;50.772;7.730;2023-03-19T12:23:26;3.25;;;0.75;;
67092;SDS011;54011;50.772;7.730;2023-03-19T12:26:08;1.50;;;0.70;;
67092;SDS011;54011;50.772;7.730;2023-03-19T12:28:43;2.45;;;0.80;;
67092;SDS011;54011;50.772;7.730;2023-03-19T12:31:27;1.92;;;0.82;;
67092;SDS011;54011;50.772;7.730;2023-03-19T12:37:16;4.30;;;1.92;;
67092;SDS011;54011;50.772;7.730;2023-03-19T12:42:50;4.80;;;1.73;;
67092;SDS011;54011;50.772;7.730;2023-03-19T12:45:22;1.92;;;0.70;;
67092;SDS011;54011;50.772;7.730;2023-03-19T12:48:00;1.63;;;0.60;;
67092;SDS011;54011;50.772;7.730;2023-03-19T12:50:58;2.15;;;0.75;;
67092;SDS011;54011;50.772;7.730;2023-03-19T12:53:53;3.50;;;1.30;;
67092;SDS011;54011;50.772;7.730;2023-03-19T13:04:59;1.73;;;0.80;;
67092;SDS011;54011;50.772;7.730;2023-03-19T13:07:53;1.90;;;0.70;;
67092;SDS011;54011;50.772;7.730;2023-03-19T13:10:36;2.78;;;0.70;;
67092;SDS011;54011;50.772;7.730;2023-03-19T13:13:16;1.45;;;0.60;;
67092;SDS011;54011;50.772;7.730;2023-03-19T13:16:14;1.83;;;0.70;;
67092;SDS011;54011;50.772;7.730;2023-03-19T13:19:20;0.63;;;0.40;;
67092;SDS011;54011;50.772;7.730;2023-03-19T13:21:58;5.57;;;0.60;;
67092;SDS011;54011;50.772;7.730;2023-03-19T13:24:33;3.10;;;0.68;;
67092;SDS011;54011;50.772;7.730;2023-03-19T13:27:02;1.05;;;0.50;;
67092;SDS011;54011;50.772;7.730;2023-03-19T13:29:31;2.10;;;0.50;;
67092;SDS011;54011;50.772;7.730;2023-03-19T13:32:06;0.82;;;0.63;;
67092;SDS011;54011;50.772;7.730;2023-03-19T13:34:46;1.05;;;0.43;;
67092;SDS011;54011;50.772;7.730;2023-03-19T13:39:38;0.68;;;0.40;;
67092;SDS011;54011;50.772;7.730;2023-03-19T13:42:16;0.45;;;0.40;;
67092;SDS011;54011;50.772;7.730;2023-03-19T13:45:03;0.80;;;0.45;;
67092;SDS011;54011;50.772;7.730;2023-03-19T13:47:50;1.25;;;0.40;;
67092;SDS011;54011;50.772;7.730;2023-03-19T13:50:22;1.20;;;0.50;;
67092;SDS011;54011;50.772;7.730;2023-03-19T13:53:09;0.60;;;0.40;;
67092;SDS011;54011;50.772;7.730;2023-03-19T13:58:22;1.92;;;0.50;;
67092;SDS011;54011;50.772;7.730;2023-03-19T14:01:09;1.05;;;0.60;;
67092;SDS011;54011;50.772;7.730;2023-03-19T14:03:59;1.70;;;0.70;;
67092;SDS011;54011;50.772;7.730;2023-03-19T14:06:34;1.10;;;0.55;;
67092;SDS011;54011;50.772;7.730;2023-03-19T14:11:53;0.38;;;0.38;;
67092;SDS011;54011;50.772;7.730;2023-03-19T14:14:19;1.40;;;0.60;;
67092;SDS011;54011;50.772;7.730;2023-03-19T14:16:47;1.42;;;0.63;;
67092;SDS011;54011;50.772;7.730;2023-03-19T14:19:17;0.85;;;0.57;;
67092;SDS011;54011;50.772;7.730;2023-03-19T14:27:00;1.05;;;0.60;;
67092;SDS011;54011;50.772;7.730;2023-03-19T14:29:28;2.00;;;0.70;;
67092;SDS011;54011;50.772;7.730;2023-03-19T14:31:59;1.75;;;0.70;;
67092;SDS011;54011;50.772;7.730;2023-03-19T14:34:33;2.00;;;0.70;;
67092;SDS011;54011;50.772;7.730;2023-03-19T14:40:07;1.58;;;0.68;;
67092;SDS011;54011;50.772;7.730;2023-03-19T14:48:42;1.80;;;0.70;;
67092;SDS011;54011;50.772;7.730;2023-03-19T14:57:18;2.13;;;0.70;;
67092;SDS011;54011;50.772;7.730;2023-03-19T14:59:46;3.15;;;0.80;;
67092;SDS011;54011;50.772;7.730;2023-03-19T15:02:32;1.42;;;0.60;;
67092;SDS011;54011;50.772;7.730;2023-03-19T15:07:38;1.45;;;0.65;;
67092;SDS011;54011;50.772;7.730;2023-03-19T15:10:16;1.20;;;0.68;;
67092;SDS011;54011;50.772;7.730;2023-03-19T15:12:51;1.92;;;0.88;;
67092;SDS011;54011;50.772;7.730;2023-03-19T15:18:30;1.55;;;0.60;;
67092;SDS011;54011;50.772;7.730;2023-03-19T15:20:56;1.73;;;0.60;;
67092;SDS011;54011;50.772;7.730;2023-03-19T15:23:25;2.17;;;0.80;;
67092;SDS011;54011;50.772;7.730;2023-03-19T15:25:54;3.08;;;0.80;;
67092;SDS011;54011;50.772;7.730;2023-03-19T15:28:26;3.60;;;0.80;;
67092;SDS011;54011;50.772;7.730;2023-03-19T15:31:00;1.75;;;0.60;;
67092;SDS011;54011;50.772;7.730;2023-03-19T15:33:36;1.90;;;0.70;;
67092;SDS011;54011;50.772;7.730;2023-03-19T15:36:20;1.58;;;0.70;;
67092;SDS011;54011;50.772;7.730;2023-03-19T15:39:03;1.08;;;0.60;;
67092;SDS011;54011;50.772;7.730;2023-03-19T15:41:34;1.92;;;0.80;;
67092;SDS011;54011;50.772;7.730;2023-03-19T15:44:06;2.33;;;0.80;;
67092;SDS011;54011;50.772;7.730;2023-03-19T15:46:35;2.35;;;0.80;;
67092;SDS011;54011;50.772;7.730;2023-03-19T15:49:05;2.70;;;0.80;;
67092;SDS011;54011;50.772;7.730;2023-03-19T15:51:43;3.78;;;1.25;;
67092;SDS011;54011;50.772;7.730;2023-03-19T15:54:13;2.05;;;0.68;;
67092;SDS011;54011;50.772;7.730;2023-03-19T15:56:40;1.15;;;0.60;;
67092;SDS011;54011;50.772;7.730;2023-03-19T15:59:07;2.55;;;0.70;;
67092;SDS011;54011;50.772;7.730;2023-03-19T16:01:35;1.80;;;0.70;;
67092;SDS011;54011;50.772;7.730;2023-03-19T16:04:04;3.33;;;0.70;;
67092;SDS011;54011;50.772;7.730;2023-03-19T16:06:35;2.45;;;0.80;;
67092;SDS011;54011;50.772;7.730;2023-03-19T16:09:37;2.42;;;0.85;;
67092;SDS011;54011;50.772;7.730;2023-03-19T16:11:58;2.20;;;0.70;;
67092;SDS011;54011;50.772;7.730;2023-03-19T16:17:09;1.77;;;0.70;;
67092;SDS011;54011;50.772;7.730;2023-03-19T16:19:47;2.78;;;0.90;;
67092;SDS011;54011;50.772;7.730;2023-03-19T16:22:20;1.73;;;0.77;;
67092;SDS011;54011;50.772;7.730;2023-03-19T16:24:49;2.00;;;0.70;;
67092;SDS011;54011;50.772;7.730;2023-03-19T16:27:17;2.22;;;0.70;;
67092;SDS011;54011;50.772;7.730;2023-03-19T16:29:56;1.77;;;0.70;;
67092;SDS011;54011;50.772;7.730;2023-03-19T16:32:23;2.13;;;0.70;;
67092;SDS011;54011;50.772;7.730;2023-03-19T16:34:56;1.98;;;0.80;;
67092;SDS011;54011;50.772;7.730;2023-03-19T16:42:38;2.28;;;0.90;;
67092;SDS011;54011;50.772;7.730;2023-03-19T16:47:42;1.92;;;0.80;;
67092;SDS011;54011;50.772;7.730;2023-03-19T16:50:10;2.30;;;0.77;;
67092;SDS011;54011;50.772;7.730;2023-03-19T16:52:36;1.50;;;0.70;;
67092;SDS011;54011;50.772;7.730;2023-03-19T16:55:04;2.40;;;0.75;;
67092;SDS011;54011;50.772;7.730;2023-03-19T16:57:58;2.50;;;0.80;;
67092;SDS011;54011;50.772;7.730;2023-03-19T17:00:26;3.50;;;0.98;;
67092;SDS011;54011;50.772;7.730;2023-03-19T17:02:54;2.40;;;0.77;;
67092;SDS011;54011;50.772;7.730;2023-03-19T17:05:21;2.88;;;0.80;;